createdAt,value
2018-07-07T00:00:02.372Z,0.00
2018-07-07T00:01:02.336Z,0.00
2018-07-07T00:02:02.298Z,0.00
2018-07-07T00:03:02.288Z,0.00
2018-07-07T00:04:02.208Z,0.00
2018-07-07T00:05:02.190Z,0.00
2018-07-07T00:06:02.146Z,0.00
2018-07-07T00:07:02.119Z,0.00
2018-07-07T00:08:02.087Z,0.00
2018-07-07T00:09:02.037Z,0.00
2018-07-07T00:10:02.006Z,0.00
2018-07-07T00:11:01.939Z,0.00
2018-07-07T00:12:13.312Z,0.00
2018-07-07T00:13:01.899Z,0.00
2018-07-07T00:14:01.825Z,0.00
2018-07-07T00:15:01.798Z,0.00
2018-07-07T00:16:01.781Z,0.00
2018-07-07T00:17:01.730Z,0.00
2018-07-07T00:18:01.717Z,0.00
2018-07-07T00:19:01.643Z,0.00
2018-07-07T00:20:01.607Z,0.00
2018-07-07T00:21:01.558Z,0.00
2018-07-07T00:22:01.519Z,0.00
2018-07-07T00:23:01.511Z,0.00
2018-07-07T00:24:01.436Z,0.00
2018-07-07T00:25:01.425Z,0.00
2018-07-07T00:26:01.403Z,0.00
2018-07-07T00:27:01.337Z,0.00
2018-07-07T00:28:01.346Z,0.00
2018-07-07T00:29:01.276Z,0.00
2018-07-07T00:30:01.224Z,0.00
2018-07-07T00:31:01.192Z,0.00
2018-07-07T00:32:01.193Z,0.00
2018-07-07T00:33:01.103Z,0.00
2018-07-07T00:34:01.067Z,0.00
2018-07-07T00:35:01.030Z,0.00
2018-07-07T00:36:00.984Z,0.00
2018-07-07T00:37:01.005Z,0.00
2018-07-07T00:38:00.923Z,0.00
2018-07-07T00:39:00.890Z,0.00
2018-07-07T00:40:00.875Z,0.00
2018-07-07T00:41:00.805Z,0.00
2018-07-07T00:42:00.798Z,0.00
2018-07-07T00:43:00.730Z,0.00
2018-07-07T00:44:00.695Z,0.00
2018-07-07T00:45:00.682Z,0.00
2018-07-07T00:46:00.632Z,0.00
2018-07-07T00:47:00.621Z,0.00
2018-07-07T00:48:00.551Z,0.00
2018-07-07T00:49:00.524Z,0.00
2018-07-07T00:50:00.472Z,0.00
2018-07-07T00:51:00.457Z,0.00
2018-07-07T00:52:00.422Z,0.00
2018-07-07T00:53:00.365Z,0.00
2018-07-07T00:54:00.319Z,0.00
2018-07-07T00:55:00.288Z,0.00
2018-07-07T00:56:00.229Z,0.00
2018-07-07T00:57:00.253Z,0.00
2018-07-07T00:58:00.154Z,0.00
2018-07-07T00:59:00.108Z,0.00
2018-07-07T01:00:00.112Z,0.00
2018-07-07T01:01:00.040Z,0.00
2018-07-07T01:02:00.055Z,0.00
2018-07-07T01:02:59.972Z,0.00
2018-07-07T01:03:59.941Z,0.00
2018-07-07T01:04:59.889Z,0.00
2018-07-07T01:05:59.882Z,0.00
2018-07-07T01:06:59.841Z,0.00
2018-07-07T01:07:59.775Z,0.00
2018-07-07T01:08:59.777Z,0.00
2018-07-07T01:09:59.721Z,0.00
2018-07-07T01:10:59.676Z,0.00
2018-07-07T01:11:59.650Z,0.00
2018-07-07T01:12:59.606Z,0.00
2018-07-07T01:13:59.547Z,0.00
2018-07-07T01:14:59.519Z,0.00
2018-07-07T01:15:59.511Z,0.00
2018-07-07T01:16:59.440Z,0.00
2018-07-07T01:17:59.398Z,0.00
2018-07-07T01:18:59.381Z,0.00
2018-07-07T01:19:59.323Z,0.00
2018-07-07T01:20:59.328Z,0.00
2018-07-07T01:22:09.364Z,0.00
2018-07-07T01:22:59.239Z,0.00
2018-07-07T01:23:59.172Z,0.00
2018-07-07T01:24:59.154Z,0.00
2018-07-07T01:25:59.119Z,0.00
2018-07-07T01:26:59.060Z,0.00
2018-07-07T01:27:59.034Z,0.00
2018-07-07T01:28:58.970Z,0.00
2018-07-07T01:29:58.952Z,0.00
2018-07-07T01:30:58.929Z,0.00
2018-07-07T01:31:58.883Z,0.00
2018-07-07T01:32:58.834Z,0.00
2018-07-07T01:33:58.811Z,0.00
2018-07-07T01:34:58.758Z,0.00
2018-07-07T01:35:58.764Z,0.00
2018-07-07T01:36:58.689Z,0.00
2018-07-07T01:37:58.659Z,0.00
2018-07-07T01:38:58.601Z,0.00
2018-07-07T01:39:58.578Z,0.00
2018-07-07T01:40:58.551Z,0.00
2018-07-07T01:41:58.494Z,0.00
2018-07-07T01:42:58.462Z,0.00
2018-07-07T01:43:58.421Z,0.00
2018-07-07T01:45:08.840Z,0.00
2018-07-07T01:45:58.366Z,0.00
2018-07-07T01:46:58.301Z,0.00
2018-07-07T01:47:58.266Z,0.00
2018-07-07T01:48:58.289Z,0.00
2018-07-07T01:49:58.192Z,0.00
2018-07-07T01:50:58.182Z,0.00
2018-07-07T01:51:58.126Z,0.00
2018-07-07T01:52:58.090Z,0.00
2018-07-07T01:53:58.035Z,0.00
2018-07-07T01:54:57.991Z,0.00
2018-07-07T01:55:57.991Z,0.00
2018-07-07T01:56:57.922Z,0.00
2018-07-07T01:57:57.897Z,0.00
2018-07-07T01:58:57.857Z,0.00
2018-07-07T01:59:57.837Z,0.00
2018-07-07T02:00:57.795Z,0.00
2018-07-07T02:01:57.753Z,0.00
2018-07-07T02:02:57.698Z,0.00
2018-07-07T02:03:57.671Z,0.00
2018-07-07T02:04:57.655Z,0.00
2018-07-07T02:05:57.595Z,0.00
2018-07-07T02:06:57.551Z,0.00
2018-07-07T02:07:57.527Z,0.00
2018-07-07T02:09:08.884Z,0.00
2018-07-07T02:09:57.449Z,0.00
2018-07-07T02:10:57.399Z,0.00
2018-07-07T02:11:57.385Z,0.00
2018-07-07T02:12:57.321Z,0.00
2018-07-07T02:13:57.286Z,0.00
2018-07-07T02:14:57.279Z,0.00
2018-07-07T02:15:57.205Z,0.00
2018-07-07T02:16:57.191Z,0.00
2018-07-07T02:17:57.156Z,0.00
2018-07-07T02:18:57.094Z,0.00
2018-07-07T02:19:57.082Z,0.00
2018-07-07T02:20:57.022Z,0.00
2018-07-07T02:21:56.995Z,0.00
2018-07-07T02:22:56.954Z,0.00
2018-07-07T02:23:56.920Z,0.00
2018-07-07T02:24:56.895Z,0.00
2018-07-07T02:25:56.845Z,0.00
2018-07-07T02:26:56.825Z,0.00
2018-07-07T02:27:56.790Z,0.00
2018-07-07T02:28:56.716Z,0.00
2018-07-07T02:29:56.727Z,0.00
2018-07-07T02:30:56.657Z,0.00
2018-07-07T02:31:56.645Z,0.00
2018-07-07T02:32:56.583Z,0.00
2018-07-07T02:33:56.552Z,0.00
2018-07-07T02:34:56.527Z,0.00
2018-07-07T02:35:56.461Z,0.00
2018-07-07T02:36:56.441Z,0.00
2018-07-07T02:37:56.392Z,0.00
2018-07-07T02:38:56.341Z,0.00
2018-07-07T02:39:56.341Z,0.00
2018-07-07T02:40:56.271Z,0.00
2018-07-07T02:41:56.240Z,0.00
2018-07-07T02:42:56.208Z,0.00
2018-07-07T02:43:56.184Z,0.00
2018-07-07T02:44:56.151Z,0.00
2018-07-07T02:45:56.097Z,0.00
2018-07-07T02:46:56.091Z,0.00
2018-07-07T02:47:56.021Z,4.00
2018-07-07T02:48:56.016Z,4.00
2018-07-07T02:49:55.942Z,4.00
2018-07-07T02:50:55.895Z,0.00
2018-07-07T02:51:55.854Z,0.00
2018-07-07T02:52:55.838Z,4.00
2018-07-07T02:53:55.815Z,4.00
2018-07-07T02:54:55.761Z,4.00
2018-07-07T02:55:55.732Z,4.00
2018-07-07T02:56:55.702Z,8.00
2018-07-07T02:57:55.654Z,4.00
2018-07-07T02:58:55.645Z,8.00
2018-07-07T02:59:55.559Z,8.00
2018-07-07T03:00:55.534Z,8.00
2018-07-07T03:01:55.500Z,12.00
2018-07-07T03:02:55.455Z,16.00
2018-07-07T03:03:55.454Z,16.00
2018-07-07T03:04:55.380Z,16.00
2018-07-07T03:05:55.353Z,20.00
2018-07-07T03:06:55.311Z,20.00
2018-07-07T03:07:55.293Z,20.00
2018-07-07T03:08:55.259Z,28.00
2018-07-07T03:09:55.188Z,28.00
2018-07-07T03:10:55.151Z,32.00
2018-07-07T03:11:55.117Z,36.00
2018-07-07T03:12:55.062Z,40.00
2018-07-07T03:13:55.089Z,44.00
2018-07-07T03:14:55.017Z,48.00
2018-07-07T03:15:54.961Z,56.00
2018-07-07T03:16:54.911Z,60.00
2018-07-07T03:17:54.897Z,64.00
2018-07-07T03:18:54.883Z,76.00
2018-07-07T03:19:54.832Z,80.00
2018-07-07T03:20:54.778Z,92.00
2018-07-07T03:21:54.743Z,100.00
2018-07-07T03:22:54.717Z,108.00
2018-07-07T03:23:54.682Z,124.00
2018-07-07T03:24:54.652Z,128.00
2018-07-07T03:25:54.596Z,144.00
2018-07-07T03:26:54.548Z,156.00
2018-07-07T03:27:54.521Z,176.00
2018-07-07T03:28:54.507Z,192.00
2018-07-07T03:29:54.432Z,212.00
2018-07-07T03:30:54.421Z,224.00
2018-07-07T03:31:54.381Z,236.00
2018-07-07T03:32:54.405Z,244.00
2018-07-07T03:33:54.309Z,252.00
2018-07-07T03:34:54.245Z,264.00
2018-07-07T03:35:54.216Z,276.00
2018-07-07T03:36:54.172Z,292.00
2018-07-07T03:37:54.172Z,308.00
2018-07-07T03:38:54.104Z,336.00
2018-07-07T03:39:54.082Z,356.00
2018-07-07T03:40:54.042Z,372.00
2018-07-07T03:41:54.009Z,380.00
2018-07-07T03:42:53.972Z,384.00
2018-07-07T03:43:53.908Z,380.00
2018-07-07T03:44:53.867Z,384.00
2018-07-07T03:45:53.840Z,388.00
2018-07-07T03:46:53.840Z,408.00
2018-07-07T03:49:26.848Z,484.00
2018-07-07T03:50:26.707Z,524.00
2018-07-07T03:51:26.671Z,556.00
2018-07-07T03:52:26.658Z,580.00
2018-07-07T03:53:26.599Z,600.00
2018-07-07T03:54:26.569Z,620.00
2018-07-07T03:55:26.529Z,644.00
2018-07-07T03:56:26.481Z,676.00
2018-07-07T03:57:26.467Z,720.00
2018-07-07T03:58:26.415Z,780.00
2018-07-07T03:59:26.380Z,884.00
2018-07-07T04:00:26.341Z,1044.00
2018-07-07T04:01:26.304Z,1272.00
2018-07-07T04:02:26.278Z,1516.00
2018-07-07T04:03:26.222Z,1708.00
2018-07-07T04:04:26.183Z,1856.00
2018-07-07T04:05:26.147Z,1964.00
2018-07-07T04:06:26.113Z,2072.00
2018-07-07T04:07:26.097Z,2176.00
2018-07-07T04:08:26.045Z,2292.00
2018-07-07T04:09:26.001Z,2436.00
2018-07-07T04:10:25.961Z,2544.00
2018-07-07T04:11:25.921Z,2656.00
2018-07-07T04:12:25.920Z,2708.00
2018-07-07T04:13:25.851Z,2732.00
2018-07-07T04:14:25.810Z,2736.00
2018-07-07T04:15:25.767Z,2708.00
2018-07-07T04:16:25.731Z,2676.00
2018-07-07T04:17:25.718Z,2700.00
2018-07-07T04:18:25.663Z,2800.00
2018-07-07T04:19:25.632Z,2888.00
2018-07-07T04:20:25.591Z,2892.00
2018-07-07T04:21:25.553Z,2896.00
2018-07-07T04:22:25.537Z,3016.00
2018-07-07T04:23:25.467Z,3240.00
2018-07-07T04:24:25.446Z,3500.00
2018-07-07T04:25:25.394Z,3728.00
2018-07-07T04:26:25.364Z,3924.00
2018-07-07T04:27:25.353Z,4120.00
2018-07-07T04:28:25.283Z,4304.00
2018-07-07T04:29:25.243Z,4488.00
2018-07-07T04:30:25.212Z,4644.00
2018-07-07T04:31:25.179Z,4756.00
2018-07-07T04:32:25.163Z,4840.00
2018-07-07T04:33:25.109Z,4904.00
2018-07-07T04:34:25.063Z,4964.00
2018-07-07T04:35:25.022Z,5048.00
2018-07-07T04:36:24.981Z,5172.00
2018-07-07T04:37:24.962Z,5308.00
2018-07-07T04:38:24.914Z,5428.00
2018-07-07T04:39:24.880Z,5500.00
2018-07-07T04:40:24.849Z,5524.00
2018-07-07T04:41:24.820Z,5540.00
2018-07-07T04:42:24.759Z,5540.00
2018-07-07T04:43:24.719Z,5512.00
2018-07-07T04:44:24.694Z,5472.00
2018-07-07T04:45:24.648Z,5492.00
2018-07-07T04:46:24.636Z,5612.00
2018-07-07T04:47:24.567Z,5776.00
2018-07-07T04:48:24.538Z,5920.00
2018-07-07T04:49:24.497Z,6008.00
2018-07-07T04:50:24.463Z,6036.00
2018-07-07T04:51:24.447Z,6048.00
2018-07-07T04:52:24.412Z,6008.00
2018-07-07T04:53:24.351Z,5928.00
2018-07-07T04:54:24.308Z,5848.00
2018-07-07T04:55:24.270Z,5796.00
2018-07-07T04:56:24.252Z,5776.00
2018-07-07T04:57:24.194Z,5820.00
2018-07-07T04:58:24.169Z,5968.00
2018-07-07T04:59:24.126Z,6212.00
2018-07-07T05:00:24.087Z,6408.00
2018-07-07T05:01:24.063Z,6504.00
2018-07-07T05:02:24.015Z,6516.00
2018-07-07T05:03:23.981Z,6448.00
2018-07-07T05:04:23.975Z,6324.00
2018-07-07T05:05:23.906Z,6196.00
2018-07-07T05:06:23.880Z,6108.00
2018-07-07T05:07:23.818Z,6088.00
2018-07-07T05:08:23.783Z,6100.00
2018-07-07T05:09:23.743Z,6148.00
2018-07-07T05:10:23.715Z,6216.00
2018-07-07T05:11:23.699Z,6388.00
2018-07-07T05:12:23.641Z,6620.00
2018-07-07T05:13:23.605Z,6816.00
2018-07-07T05:14:23.559Z,6992.00
2018-07-07T05:15:23.555Z,7196.00
2018-07-07T05:16:23.513Z,7412.00
2018-07-07T05:17:23.455Z,7680.00
2018-07-07T05:18:23.409Z,7924.00
2018-07-07T05:19:23.377Z,8308.00
2018-07-07T05:20:23.335Z,8852.00
2018-07-07T05:21:23.318Z,10644.00
2018-07-07T05:22:23.265Z,10148.00
2018-07-07T05:23:23.229Z,10724.00
2018-07-07T05:24:23.199Z,10448.00
2018-07-07T05:25:23.177Z,15360.00
2018-07-07T05:26:23.114Z,16320.00
2018-07-07T05:27:23.077Z,16576.00
2018-07-07T05:28:23.037Z,17056.00
2018-07-07T05:29:23.005Z,20704.00
2018-07-07T05:30:22.994Z,21952.00
2018-07-07T05:31:22.939Z,21728.00
2018-07-07T05:32:22.892Z,21376.00
2018-07-07T05:33:22.864Z,20480.00
2018-07-07T05:34:22.827Z,24800.00
2018-07-07T05:35:22.813Z,23520.00
2018-07-07T05:36:22.758Z,24928.00
2018-07-07T05:37:22.720Z,26464.00
2018-07-07T05:38:22.682Z,26688.00
2018-07-07T05:39:22.648Z,26240.00
2018-07-07T05:40:22.631Z,25216.00
2018-07-07T05:41:22.575Z,25792.00
2018-07-07T05:42:22.544Z,24640.00
2018-07-07T05:43:22.512Z,26112.00
2018-07-07T05:44:22.477Z,25920.00
2018-07-07T05:45:22.464Z,24352.00
2018-07-07T05:46:22.401Z,23904.00
2018-07-07T05:47:22.371Z,24288.00
2018-07-07T05:48:22.344Z,25056.00
2018-07-07T05:49:22.311Z,25440.00
2018-07-07T05:50:22.291Z,26144.00
2018-07-07T05:51:22.236Z,26944.00
2018-07-07T05:52:22.205Z,26432.00
2018-07-07T05:53:22.172Z,26176.00
2018-07-07T05:54:22.146Z,27552.00
2018-07-07T05:55:22.133Z,25760.00
2018-07-07T05:56:22.079Z,24416.00
2018-07-07T05:57:22.090Z,18656.00
2018-07-07T05:58:22.007Z,24576.00
2018-07-07T05:59:21.974Z,20704.00
2018-07-07T06:00:21.961Z,17376.00
2018-07-07T06:01:21.908Z,23552.00
2018-07-07T06:02:21.881Z,24864.00
2018-07-07T06:03:21.848Z,29568.00
2018-07-07T06:04:21.813Z,32768.00
2018-07-07T06:05:21.799Z,30240.00
2018-07-07T06:06:21.754Z,26656.00
2018-07-07T06:07:21.720Z,16640.00
2018-07-07T06:08:21.688Z,16256.00
2018-07-07T06:09:21.678Z,18240.00
2018-07-07T06:10:21.614Z,18784.00
2018-07-07T06:11:21.584Z,14772.00
2018-07-07T06:12:21.552Z,19392.00
2018-07-07T06:13:21.519Z,30176.00
2018-07-07T06:14:21.534Z,29536.00
2018-07-07T06:15:21.459Z,30432.00
2018-07-07T06:16:21.427Z,31808.00
2018-07-07T06:17:21.396Z,30208.00
2018-07-07T06:18:21.375Z,29312.00
2018-07-07T06:19:21.348Z,26048.00
2018-07-07T06:20:21.301Z,21952.00
2018-07-07T06:21:21.268Z,15676.00
2018-07-07T06:22:21.225Z,28224.00
2018-07-07T06:23:21.196Z,29216.00
2018-07-07T06:24:21.184Z,30912.00
2018-07-07T06:25:21.132Z,32480.00
2018-07-07T06:26:21.111Z,32320.00
2018-07-07T06:27:21.076Z,31264.00
2018-07-07T06:28:21.047Z,31584.00
2018-07-07T06:29:21.031Z,30720.00
2018-07-07T06:30:20.973Z,28480.00
2018-07-07T06:31:20.939Z,29856.00
2018-07-07T06:32:20.909Z,30176.00
2018-07-07T06:33:20.879Z,29856.00
2018-07-07T06:34:20.874Z,28448.00
2018-07-07T06:35:20.820Z,28192.00
2018-07-07T06:36:20.784Z,29984.00
2018-07-07T06:37:20.803Z,31008.00
2018-07-07T06:38:20.727Z,31872.00
2018-07-07T06:39:20.725Z,31808.00
2018-07-07T06:40:20.663Z,31424.00
2018-07-07T06:41:20.635Z,32960.00
2018-07-07T06:42:20.598Z,33472.00
2018-07-07T06:43:20.565Z,33792.00
2018-07-07T06:44:20.533Z,34656.00
2018-07-07T06:45:20.525Z,35040.00
2018-07-07T06:46:20.553Z,35328.00
2018-07-07T06:47:20.492Z,35392.00
2018-07-07T06:48:20.435Z,35872.00
2018-07-07T06:49:20.399Z,35776.00
2018-07-07T06:50:20.372Z,35936.00
2018-07-07T06:51:20.321Z,36704.00
2018-07-07T06:52:20.297Z,37440.00
2018-07-07T06:53:20.317Z,38016.00
2018-07-07T06:54:20.234Z,38176.00
2018-07-07T06:55:20.225Z,38112.00
2018-07-07T06:56:20.175Z,39200.00
2018-07-07T06:57:20.138Z,40192.00
2018-07-07T06:58:20.133Z,40544.00
2018-07-07T06:59:20.082Z,40128.00
2018-07-07T07:00:20.055Z,39584.00
2018-07-07T07:01:20.046Z,38784.00
2018-07-07T07:02:19.986Z,37824.00
2018-07-07T07:03:19.978Z,36512.00
2018-07-07T07:04:19.927Z,35424.00
2018-07-07T07:05:19.899Z,34752.00
2018-07-07T07:06:19.902Z,35072.00
2018-07-07T07:07:19.842Z,36640.00
2018-07-07T07:08:19.817Z,38208.00
2018-07-07T07:09:19.779Z,39584.00
2018-07-07T07:10:19.750Z,40288.00
2018-07-07T07:11:19.747Z,40800.00
2018-07-07T07:12:19.696Z,41600.00
2018-07-07T07:13:19.664Z,42304.00
2018-07-07T07:14:19.656Z,43424.00
2018-07-07T07:15:19.598Z,43744.00
2018-07-07T07:16:19.593Z,44000.00
2018-07-07T07:17:19.549Z,43744.00
2018-07-07T07:18:19.515Z,42976.00
2018-07-07T07:19:19.489Z,42784.00
2018-07-07T07:20:19.513Z,42752.00
2018-07-07T07:21:19.426Z,43296.00
2018-07-07T07:22:19.407Z,44384.00
2018-07-07T07:23:19.358Z,45056.00
2018-07-07T07:24:19.338Z,44608.00
2018-07-07T07:25:19.542Z,43904.00
2018-07-07T07:26:19.358Z,43872.00
2018-07-07T07:27:19.239Z,44608.00
2018-07-07T07:28:19.212Z,45472.00
2018-07-07T07:29:19.184Z,44992.00
2018-07-07T07:30:19.157Z,43936.00
2018-07-07T07:31:19.129Z,44384.00
2018-07-07T07:32:19.120Z,44384.00
2018-07-07T07:33:19.068Z,45024.00
2018-07-07T07:34:19.034Z,44576.00
2018-07-07T07:35:19.005Z,43680.00
2018-07-07T07:36:18.972Z,44000.00
2018-07-07T07:37:18.966Z,44672.00
2018-07-07T07:38:18.917Z,45056.00
2018-07-07T07:39:18.890Z,44768.00
2018-07-07T07:40:18.851Z,43552.00
2018-07-07T07:41:18.823Z,42496.00
2018-07-07T07:42:18.825Z,41152.00
2018-07-07T07:43:18.839Z,39968.00
2018-07-07T07:44:18.738Z,40896.00
2018-07-07T07:45:18.712Z,42816.00
2018-07-07T07:46:18.685Z,45120.00
2018-07-07T07:47:18.674Z,45792.00
2018-07-07T07:48:18.614Z,46656.00
2018-07-07T07:49:18.589Z,46464.00
2018-07-07T07:50:18.563Z,45728.00
2018-07-07T07:51:18.575Z,45568.00
2018-07-07T07:52:18.526Z,45792.00
2018-07-07T07:53:18.499Z,45568.00
2018-07-07T07:54:18.437Z,45632.00
2018-07-07T07:55:18.417Z,45984.00
2018-07-07T07:56:18.389Z,46304.00
2018-07-07T07:57:18.393Z,46848.00
2018-07-07T07:58:18.320Z,46880.00
2018-07-07T07:59:18.299Z,46880.00
2018-07-07T08:00:18.269Z,47264.00
2018-07-07T08:01:18.238Z,47520.00
2018-07-07T08:02:18.216Z,46784.00
2018-07-07T08:03:18.208Z,46240.00
2018-07-07T08:04:18.207Z,46208.00
2018-07-07T08:05:18.137Z,47360.00
2018-07-07T08:06:18.094Z,49024.00
2018-07-07T08:07:18.060Z,51040.00
2018-07-07T08:08:18.063Z,51296.00
2018-07-07T08:09:18.063Z,50400.00
2018-07-07T08:10:17.981Z,48992.00
2018-07-07T08:11:17.973Z,47200.00
2018-07-07T08:12:17.927Z,44928.00
2018-07-07T08:13:17.894Z,42560.00
2018-07-07T08:14:17.898Z,42432.00
2018-07-07T08:15:17.839Z,43744.00
2018-07-07T08:16:17.816Z,45536.00
2018-07-07T08:17:18.443Z,45792.00
2018-07-07T08:18:17.750Z,42080.00
2018-07-07T08:19:17.745Z,36000.00
2018-07-07T08:20:17.741Z,32416.00
2018-07-07T08:21:17.667Z,33536.00
2018-07-07T08:22:17.663Z,38272.00
2018-07-07T08:23:17.615Z,40832.00
2018-07-07T08:24:17.655Z,41856.00
2018-07-07T08:25:17.583Z,43584.00
2018-07-07T08:26:17.526Z,44832.00
2018-07-07T08:27:17.494Z,47872.00
2018-07-07T08:28:17.499Z,50720.00
2018-07-07T08:29:17.472Z,53376.00
2018-07-07T08:30:17.425Z,54752.00
2018-07-07T08:31:17.386Z,54720.00
2018-07-07T08:32:17.405Z,55200.00
2018-07-07T08:33:17.325Z,55328.00
2018-07-07T08:34:17.312Z,55904.00
2018-07-07T08:35:17.306Z,55424.00
2018-07-07T08:36:17.259Z,54880.00
2018-07-07T08:37:17.226Z,55424.00
2018-07-07T08:38:17.190Z,57440.00
2018-07-07T08:39:17.189Z,57376.00
2018-07-07T08:40:17.135Z,56160.00
2018-07-07T08:41:17.107Z,55136.00
2018-07-07T08:42:17.092Z,55168.00
2018-07-07T08:43:17.061Z,57024.00
2018-07-07T08:44:17.023Z,58656.00
2018-07-07T08:45:17.020Z,57344.00
2018-07-07T08:46:16.985Z,55488.00
2018-07-07T08:47:16.950Z,54272.00
2018-07-07T08:48:16.925Z,54656.00
2018-07-07T08:49:16.901Z,54624.00
2018-07-07T08:50:16.880Z,55008.00
2018-07-07T08:51:16.835Z,56320.00
2018-07-07T08:52:16.806Z,56576.00
2018-07-07T08:53:16.778Z,57632.00
2018-07-07T08:54:16.758Z,56480.00
2018-07-07T08:55:16.752Z,53216.00
2018-07-07T08:56:16.701Z,51712.00
2018-07-07T08:57:16.678Z,52064.00
2018-07-07T08:58:16.637Z,49568.00
2018-07-07T08:59:16.612Z,49856.00
2018-07-07T09:00:16.630Z,50144.00
2018-07-07T09:01:16.564Z,51488.00
2018-07-07T09:02:16.615Z,53600.00
2018-07-07T09:03:16.508Z,56448.00
2018-07-07T09:04:16.475Z,56864.00
2018-07-07T09:05:16.450Z,56256.00
2018-07-07T09:06:16.449Z,54976.00
2018-07-07T09:07:16.403Z,53056.00
2018-07-07T09:08:16.371Z,52352.00
2018-07-07T09:09:16.347Z,51520.00
2018-07-07T09:10:16.313Z,51232.00
2018-07-07T09:11:16.305Z,51520.00
2018-07-07T09:12:16.259Z,51136.00
2018-07-07T09:13:16.229Z,50016.00
2018-07-07T09:14:16.257Z,47232.00
2018-07-07T09:15:16.182Z,45056.00
2018-07-07T09:16:16.171Z,44352.00
2018-07-07T09:17:16.116Z,44768.00
2018-07-07T09:18:16.107Z,45664.00
2018-07-07T09:19:16.073Z,45728.00
2018-07-07T09:20:16.077Z,43872.00
2018-07-07T09:21:16.044Z,43008.00
2018-07-07T09:22:16.004Z,43360.00
2018-07-07T09:23:15.957Z,46464.00
2018-07-07T09:24:15.928Z,50208.00
2018-07-07T09:25:15.903Z,54016.00
2018-07-07T09:26:15.888Z,55520.00
2018-07-07T09:27:15.875Z,57536.00
2018-07-07T09:28:15.828Z,58880.00
2018-07-07T09:29:15.797Z,59552.00
2018-07-07T09:30:15.767Z,59680.00
2018-07-07T09:31:15.737Z,58688.00
2018-07-07T09:32:15.743Z,56800.00
2018-07-07T09:33:15.715Z,54336.00
2018-07-07T09:34:15.680Z,53408.00
2018-07-07T09:35:15.632Z,54688.00
2018-07-07T09:36:15.606Z,58848.00
2018-07-07T09:37:15.606Z,59968.00
2018-07-07T09:38:15.558Z,60288.00
2018-07-07T09:39:15.536Z,60256.00
2018-07-07T09:40:15.502Z,61664.00
2018-07-07T09:41:15.478Z,60544.00
2018-07-07T09:42:15.442Z,56800.00
2018-07-07T09:43:15.438Z,52800.00
2018-07-07T09:44:15.392Z,53024.00
2018-07-07T09:45:15.363Z,55840.00
2018-07-07T09:46:15.351Z,59104.00
2018-07-07T09:47:15.314Z,59360.00
2018-07-07T09:48:15.311Z,59424.00
2018-07-07T09:49:15.256Z,59744.00
2018-07-07T09:50:15.240Z,60224.00
2018-07-07T09:51:15.209Z,61216.00
2018-07-07T09:52:15.187Z,61568.00
2018-07-07T09:53:15.184Z,61696.00
2018-07-07T09:54:15.131Z,62400.00
2018-07-07T09:55:15.097Z,62976.00
2018-07-07T09:56:15.101Z,63072.00
2018-07-07T09:57:15.044Z,61920.00
2018-07-07T09:58:15.030Z,61920.00
2018-07-07T09:59:15.049Z,60544.00
2018-07-07T10:00:14.975Z,60608.00
2018-07-07T10:01:14.950Z,61376.00
2018-07-07T10:02:14.914Z,61664.00
2018-07-07T10:03:14.891Z,60192.00
2018-07-07T10:04:14.895Z,57568.00
2018-07-07T10:05:14.849Z,56928.00
2018-07-07T10:06:14.812Z,57312.00
2018-07-07T10:07:14.789Z,58656.00
2018-07-07T10:08:14.766Z,59584.00
2018-07-07T10:09:14.759Z,59744.00
2018-07-07T10:10:14.722Z,59680.00
2018-07-07T10:11:14.695Z,58560.00
2018-07-07T10:12:14.672Z,58624.00
2018-07-07T10:13:14.648Z,59456.00
2018-07-07T10:14:14.634Z,59680.00
2018-07-07T10:15:14.589Z,60896.00
2018-07-07T10:16:14.558Z,51392.00
2018-07-07T10:17:14.538Z,43392.00
2018-07-07T10:18:14.519Z,57632.00
2018-07-07T10:19:14.515Z,58912.00
2018-07-07T10:20:14.461Z,49280.00
2018-07-07T10:21:14.434Z,45184.00
2018-07-07T10:22:14.420Z,0.00
2018-07-07T10:23:14.391Z,49952.00
2018-07-07T10:24:14.386Z,38272.00
2018-07-07T10:25:14.342Z,59712.00
2018-07-07T10:26:14.315Z,0.00
2018-07-07T10:27:14.284Z,62208.00
2018-07-07T10:28:14.252Z,13120.00
2018-07-07T10:29:14.247Z,9140.00
2018-07-07T10:30:14.208Z,12892.00
2018-07-07T10:31:14.182Z,13084.00
2018-07-07T10:32:14.156Z,12788.00
2018-07-07T10:33:14.129Z,12700.00
2018-07-07T10:34:14.119Z,12752.00
2018-07-07T10:35:14.070Z,12816.00
2018-07-07T10:36:14.055Z,12784.00
2018-07-07T10:37:14.029Z,12552.00
2018-07-07T10:38:14.052Z,12736.00
2018-07-07T10:39:13.986Z,12648.00
2018-07-07T10:40:13.941Z,12564.00
2018-07-07T10:41:13.916Z,12628.00
2018-07-07T10:42:13.892Z,12568.00
2018-07-07T10:43:13.868Z,12708.00
2018-07-07T10:44:13.863Z,12784.00
2018-07-07T10:45:13.817Z,12736.00
2018-07-07T10:46:13.791Z,13008.00
2018-07-07T10:47:13.761Z,14236.00
2018-07-07T10:48:13.734Z,5128.00
2018-07-07T10:49:13.742Z,14848.00
2018-07-07T10:50:13.687Z,13288.00
2018-07-07T10:51:13.666Z,15168.00
2018-07-07T10:52:13.629Z,54624.00
2018-07-07T10:53:13.608Z,62048.00
2018-07-07T10:54:13.589Z,63200.00
2018-07-07T10:55:13.589Z,63296.00
2018-07-07T10:56:13.533Z,64352.00
2018-07-07T10:57:13.552Z,64224.00
2018-07-07T10:58:13.490Z,63328.00
2018-07-07T10:59:13.453Z,62656.00
2018-07-07T11:00:13.457Z,61088.00
2018-07-07T11:01:13.400Z,61280.00
2018-07-07T11:02:13.389Z,61888.00
2018-07-07T11:03:13.356Z,63680.00
2018-07-07T11:04:13.339Z,63424.00
2018-07-07T11:05:13.334Z,62368.00
2018-07-07T11:06:13.275Z,63968.00
2018-07-07T11:07:13.247Z,62432.00
2018-07-07T11:08:13.234Z,62624.00
2018-07-07T11:09:13.224Z,63936.00
2018-07-07T11:10:13.170Z,63776.00
2018-07-07T11:11:13.169Z,66816.00
2018-07-07T11:12:13.120Z,66528.00
2018-07-07T11:13:13.095Z,62496.00
2018-07-07T11:14:13.086Z,63200.00
2018-07-07T11:15:13.050Z,65088.00
2018-07-07T11:16:13.050Z,59744.00
2018-07-07T11:17:12.999Z,66272.00
2018-07-07T11:18:12.963Z,65056.00
2018-07-07T11:19:12.940Z,63808.00
2018-07-07T11:20:12.918Z,64928.00
2018-07-07T11:21:12.914Z,65664.00
2018-07-07T11:22:12.871Z,65376.00
2018-07-07T11:23:12.841Z,62880.00
2018-07-07T11:24:12.811Z,59744.00
2018-07-07T11:25:12.788Z,60384.00
2018-07-07T11:26:12.766Z,61280.00
2018-07-07T11:27:12.763Z,62432.00
2018-07-07T11:28:12.717Z,63104.00
2018-07-07T11:29:12.692Z,63136.00
2018-07-07T11:30:12.657Z,62880.00
2018-07-07T11:31:12.633Z,62048.00
2018-07-07T11:32:12.628Z,61728.00
2018-07-07T11:33:12.593Z,62624.00
2018-07-07T11:34:12.557Z,65760.00
2018-07-07T11:35:12.535Z,66112.00
2018-07-07T11:36:12.541Z,67584.00
2018-07-07T11:37:12.506Z,66880.00
2018-07-07T11:38:12.449Z,67648.00
2018-07-07T11:39:12.422Z,67872.00
2018-07-07T11:40:12.403Z,66784.00
2018-07-07T11:41:12.387Z,65472.00
2018-07-07T11:42:12.422Z,62944.00
2018-07-07T11:43:12.317Z,63712.00
2018-07-07T11:44:12.293Z,53056.00
2018-07-07T11:45:12.264Z,25632.00
2018-07-07T11:46:12.247Z,24576.00
2018-07-07T11:47:12.218Z,12496.00
2018-07-07T11:48:12.213Z,13180.00
2018-07-07T11:49:12.166Z,13028.00
2018-07-07T11:50:12.205Z,22656.00
2018-07-07T11:51:12.109Z,12236.00
2018-07-07T11:52:12.080Z,8736.00
2018-07-07T11:53:12.085Z,12308.00
2018-07-07T11:54:12.033Z,12304.00
2018-07-07T11:55:12.013Z,12516.00
2018-07-07T11:56:11.976Z,12912.00
2018-07-07T11:57:11.969Z,11408.00
2018-07-07T11:58:11.955Z,10112.00
2018-07-07T11:59:11.900Z,39936.00
2018-07-07T12:00:11.874Z,62016.00
2018-07-07T12:01:11.851Z,63520.00
2018-07-07T12:02:11.818Z,10344.00
2018-07-07T12:03:11.788Z,2304.00
2018-07-07T12:04:11.783Z,64832.00
2018-07-07T12:05:11.739Z,64032.00
2018-07-07T12:06:11.715Z,67136.00
2018-07-07T12:07:11.689Z,13340.00
2018-07-07T12:08:13.991Z,64256.00
2018-07-07T12:09:11.664Z,12556.00
2018-07-07T12:10:11.605Z,116704.00
2018-07-07T12:11:11.576Z,59456.00
2018-07-07T12:12:11.553Z,65344.00
2018-07-07T12:13:11.528Z,9040.00